createdAt,value
2019-04-21T00:00:25.967Z,23.67
2019-04-21T00:02:55.380Z,24.57
2019-04-21T00:05:49.589Z,25.72
2019-04-21T00:08:19.426Z,23.50
2019-04-21T00:10:48.658Z,26.62
2019-04-21T00:13:07.793Z,27.40
2019-04-21T00:15:33.155Z,25.40
2019-04-21T00:18:02.130Z,25.30
2019-04-21T00:20:37.728Z,27.15
2019-04-21T00:23:19.877Z,25.57
2019-04-21T00:25:42.919Z,26.82
2019-04-21T00:28:24.108Z,22.95
2019-04-21T00:30:54.562Z,24.77
2019-04-21T00:33:06.764Z,26.30
2019-04-21T00:35:39.604Z,26.25
2019-04-21T00:41:00.464Z,27.17
2019-04-21T00:43:25.269Z,27.05
2019-04-21T00:45:48.138Z,25.80
2019-04-21T00:48:32.948Z,27.62
2019-04-21T00:51:18.468Z,29.27
2019-04-21T00:53:43.453Z,30.10
2019-04-21T00:56:10.682Z,29.18
2019-04-21T00:58:38.711Z,26.07
2019-04-21T01:01:02.305Z,25.25
2019-04-21T01:03:38.000Z,29.40
2019-04-21T01:06:11.232Z,28.07
2019-04-21T01:08:36.934Z,27.82
2019-04-21T01:11:11.368Z,35.00
2019-04-21T01:13:41.266Z,32.53
2019-04-21T01:16:14.096Z,28.52
2019-04-21T01:18:38.131Z,38.08
2019-04-21T01:20:48.264Z,40.83
2019-04-21T01:23:16.814Z,37.28
2019-04-21T01:26:03.157Z,34.25
2019-04-21T01:28:35.880Z,36.70
2019-04-21T01:31:05.952Z,37.00
2019-04-21T01:36:14.461Z,37.17
2019-04-21T01:38:48.317Z,39.63
2019-04-21T01:41:21.355Z,41.92
2019-04-21T01:43:45.180Z,40.83
2019-04-21T01:46:15.400Z,42.40
2019-04-21T01:48:46.040Z,40.55
2019-04-21T01:51:12.964Z,43.28
2019-04-21T01:53:57.982Z,42.23
2019-04-21T01:56:24.079Z,44.40
2019-04-21T01:58:42.923Z,43.50
2019-04-21T02:01:26.216Z,42.17
2019-04-21T02:04:12.275Z,46.35
2019-04-21T02:06:29.099Z,42.75
2019-04-21T02:08:56.342Z,46.23
2019-04-21T02:11:31.008Z,48.68
2019-04-21T02:14:05.450Z,45.35
2019-04-21T02:16:23.877Z,41.92
2019-04-21T02:18:54.594Z,46.02
2019-04-21T02:21:22.066Z,42.75
2019-04-21T02:23:58.656Z,44.77
2019-04-21T02:26:27.412Z,48.73
2019-04-21T02:29:03.261Z,46.15
2019-04-21T02:31:37.623Z,47.45
2019-04-21T02:34:09.273Z,45.67
2019-04-21T02:39:15.707Z,53.25
2019-04-21T02:41:45.614Z,47.73
2019-04-21T02:44:12.356Z,49.10
2019-04-21T02:49:12.971Z,50.50
2019-04-21T02:56:43.842Z,46.95
2019-04-21T02:59:17.127Z,48.58
2019-04-21T03:01:50.350Z,46.13
2019-04-21T03:06:54.155Z,50.78
2019-04-21T03:09:20.578Z,53.25
2019-04-21T03:11:52.878Z,54.60
2019-04-21T03:14:29.962Z,52.35
2019-04-21T03:16:40.522Z,51.73
2019-04-21T03:19:33.180Z,58.00
2019-04-21T03:21:52.566Z,52.80
2019-04-21T03:24:31.435Z,54.83
2019-04-21T03:27:03.499Z,54.88
2019-04-21T03:29:19.938Z,54.42
2019-04-21T03:32:28.280Z,55.45
2019-04-21T03:39:25.537Z,57.15
2019-04-21T03:42:00.255Z,62.40
2019-04-21T03:44:24.719Z,62.45
2019-04-21T03:46:57.965Z,62.43
2019-04-21T03:49:30.438Z,63.38
2019-04-21T03:51:57.332Z,52.43
2019-04-21T03:54:16.060Z,53.65
2019-04-21T03:57:13.117Z,56.58
2019-04-21T03:59:38.207Z,59.03
2019-04-21T04:02:03.545Z,58.92
2019-04-21T04:04:28.396Z,59.83
2019-04-21T04:07:06.086Z,62.10
2019-04-21T04:09:44.504Z,64.85
2019-04-21T04:14:31.045Z,63.00
2019-04-21T04:17:06.426Z,64.00
2019-04-21T04:19:36.227Z,71.53
2019-04-21T04:22:03.987Z,67.25
2019-04-21T04:24:39.599Z,64.47
2019-04-21T04:31:58.798Z,64.17
2019-04-21T04:37:12.641Z,73.78
2019-04-21T04:42:21.775Z,71.57
2019-04-21T04:49:49.826Z,78.40
2019-04-21T04:57:16.105Z,80.55
2019-04-21T04:59:45.504Z,76.55
2019-04-21T05:02:20.074Z,79.70
2019-04-21T05:07:16.941Z,89.40
2019-04-21T05:09:46.864Z,91.08
2019-04-21T05:12:11.748Z,92.62
2019-04-21T05:17:25.294Z,95.97
2019-04-21T05:19:53.318Z,91.55
2019-04-21T05:22:16.841Z,98.40
2019-04-21T05:24:33.301Z,97.80
2019-04-21T05:27:02.858Z,95.12
2019-04-21T05:29:37.583Z,97.53
2019-04-21T05:32:13.753Z,96.12
2019-04-21T05:34:35.752Z,97.55
2019-04-21T05:37:15.608Z,99.60
2019-04-21T05:39:37.582Z,102.65
2019-04-21T05:42:05.123Z,98.35
2019-04-21T05:44:58.132Z,99.83
2019-04-21T05:47:40.121Z,102.35
2019-04-21T05:50:06.520Z,100.78
2019-04-21T05:52:32.952Z,99.58
2019-04-21T05:55:14.538Z,100.97
2019-04-21T05:57:39.445Z,97.80
2019-04-21T06:00:08.777Z,86.67
2019-04-21T06:02:47.203Z,85.22
2019-04-21T06:05:24.517Z,80.85
2019-04-21T06:07:40.721Z,78.10
2019-04-21T06:10:12.613Z,75.05
2019-04-21T06:12:47.147Z,74.85
2019-04-21T06:15:14.341Z,70.92
2019-04-21T06:17:47.253Z,74.95
2019-04-21T06:20:15.362Z,64.15
2019-04-21T06:22:49.029Z,62.13
2019-04-21T06:27:44.325Z,66.72
2019-04-21T06:30:13.454Z,66.60
2019-04-21T06:33:13.545Z,65.10
2019-04-21T06:35:24.222Z,68.75
2019-04-21T06:37:51.054Z,64.87
2019-04-21T06:42:50.398Z,70.32
2019-04-21T06:45:19.712Z,70.70
2019-04-21T06:47:50.162Z,69.65
2019-04-21T06:50:24.243Z,71.28
2019-04-21T06:55:20.446Z,66.07
2019-04-21T06:57:56.039Z,68.50
2019-04-21T07:00:21.089Z,65.28
2019-04-21T07:03:17.111Z,70.65
2019-04-21T07:08:10.955Z,68.00
2019-04-21T07:10:21.009Z,71.35
2019-04-21T07:12:51.938Z,66.33
2019-04-21T07:15:25.349Z,67.17
2019-04-21T07:17:51.228Z,70.87
2019-04-21T07:20:21.812Z,70.35
2019-04-21T07:22:54.260Z,63.20
2019-04-21T07:25:25.838Z,67.47
2019-04-21T07:27:52.685Z,62.43
2019-04-21T07:30:26.633Z,59.35
2019-04-21T07:32:58.016Z,59.40
2019-04-21T07:35:22.096Z,60.95
2019-04-21T07:37:53.658Z,62.17
2019-04-21T07:40:20.316Z,61.60
2019-04-21T07:42:48.051Z,56.58
2019-04-21T07:45:18.014Z,58.83
2019-04-21T07:47:55.487Z,60.45
2019-04-21T07:50:35.018Z,52.15
2019-04-21T07:53:09.362Z,55.30
2019-04-21T07:58:02.827Z,55.60
2019-04-21T08:00:36.764Z,57.88
2019-04-21T08:05:35.303Z,56.30
2019-04-21T08:07:57.986Z,58.35
2019-04-21T08:10:33.521Z,58.42
2019-04-21T08:13:00.046Z,54.35
2019-04-21T08:15:38.562Z,51.75
2019-04-21T08:18:07.529Z,51.83
2019-04-21T08:20:38.744Z,52.20
2019-04-21T08:23:04.698Z,52.15
2019-04-21T08:25:46.309Z,55.03
2019-04-21T08:28:07.384Z,53.00
2019-04-21T08:30:36.598Z,58.38
2019-04-21T08:33:16.248Z,52.83
2019-04-21T08:38:10.630Z,50.60
2019-04-21T08:40:44.119Z,53.85
2019-04-21T08:43:12.604Z,53.87
2019-04-21T08:45:41.599Z,52.27
2019-04-21T08:48:12.420Z,52.15
2019-04-21T08:50:36.353Z,55.43
2019-04-21T08:53:09.496Z,58.90
2019-04-21T08:55:48.976Z,53.85
2019-04-21T09:00:46.821Z,46.58
2019-04-21T09:03:16.220Z,47.98
2019-04-21T09:05:42.622Z,49.67
2019-04-21T09:08:20.447Z,52.75
2019-04-21T09:10:47.026Z,54.48
2019-04-21T09:13:17.294Z,56.28
2019-04-21T09:15:41.633Z,59.15
2019-04-21T09:18:17.533Z,55.30
2019-04-21T09:20:55.286Z,56.75
2019-04-21T09:23:19.872Z,61.08
2019-04-21T09:28:14.767Z,58.15
2019-04-21T09:30:33.797Z,46.30
2019-04-21T09:33:01.622Z,44.80
2019-04-21T09:35:29.820Z,48.85
2019-04-21T09:38:07.795Z,48.90
2019-04-21T09:40:36.049Z,56.73
2019-04-21T09:43:03.237Z,55.40
2019-04-21T09:45:30.628Z,51.10
2019-04-21T09:48:06.373Z,53.38
2019-04-21T09:50:29.583Z,49.58
2019-04-21T09:53:05.445Z,49.38
2019-04-21T09:55:39.146Z,63.68
2019-04-21T09:58:10.025Z,56.25
2019-04-21T10:00:31.277Z,52.70
2019-04-21T10:03:05.835Z,52.67
2019-04-21T10:05:29.773Z,50.33
2019-04-21T10:07:58.261Z,48.40
2019-04-21T10:10:27.573Z,46.50
2019-04-21T10:12:56.340Z,46.75
2019-04-21T10:15:28.245Z,51.77
2019-04-21T10:17:58.344Z,45.28
2019-04-21T10:20:26.921Z,46.92
2019-04-21T10:22:55.448Z,42.03
2019-04-21T10:25:24.990Z,46.37
2019-04-21T10:27:54.840Z,40.55
2019-04-21T10:30:24.609Z,41.83
2019-04-21T10:32:54.321Z,41.73
2019-04-21T10:35:24.330Z,42.90
2019-04-21T10:38:05.315Z,38.67
2019-04-21T10:40:25.469Z,41.55
2019-04-21T10:42:54.206Z,41.55
2019-04-21T10:45:23.094Z,37.58
2019-04-21T10:47:52.802Z,39.45
2019-04-21T10:50:22.631Z,35.58
2019-04-21T10:52:53.225Z,33.08
2019-04-21T10:55:41.798Z,38.78
2019-04-21T10:57:55.914Z,30.52
2019-04-21T11:00:24.492Z,33.25
2019-04-21T11:02:54.811Z,35.43
2019-04-21T11:05:24.843Z,34.88
2019-04-21T11:08:08.976Z,35.33
2019-04-21T11:10:25.757Z,34.38
2019-04-21T11:12:54.701Z,29.67
2019-04-21T11:15:23.422Z,35.00
2019-04-21T11:17:52.316Z,28.83
2019-04-21T11:20:20.973Z,22.58
2019-04-21T11:22:49.527Z,24.00
2019-04-21T11:25:18.094Z,29.18
2019-04-21T11:27:47.032Z,28.65
2019-04-21T11:30:15.849Z,26.30
2019-04-21T11:32:46.352Z,23.70
2019-04-21T11:35:15.226Z,23.27
2019-04-21T11:37:44.065Z,25.40
2019-04-21T11:40:16.287Z,25.85
2019-04-21T11:42:44.048Z,23.05
2019-04-21T11:45:16.535Z,27.17
2019-04-21T11:47:48.169Z,25.82
2019-04-21T11:50:17.072Z,25.10
2019-04-21T11:52:47.233Z,24.95
2019-04-21T11:55:16.602Z,27.77
2019-04-21T11:57:48.644Z,27.35
2019-04-21T12:00:15.794Z,25.70
2019-04-21T12:02:45.627Z,23.75
2019-04-21T12:05:15.122Z,29.52
2019-04-21T12:07:45.030Z,30.75
2019-04-21T12:10:13.849Z,27.48
2019-04-21T12:12:43.330Z,27.90
2019-04-21T12:15:14.140Z,27.20
2019-04-21T12:17:43.881Z,31.57
2019-04-21T12:20:13.098Z,32.50
2019-04-21T12:22:41.652Z,27.20
2019-04-21T12:25:13.302Z,28.83
2019-04-21T12:27:41.912Z,29.55
2019-04-21T12:30:13.874Z,26.55
2019-04-21T12:32:44.333Z,28.67
2019-04-21T12:35:15.760Z,27.13
2019-04-21T12:37:44.834Z,27.15
2019-04-21T12:40:14.728Z,28.67
2019-04-21T12:42:43.791Z,27.22
2019-04-21T12:45:15.238Z,28.95
2019-04-21T12:47:44.069Z,24.90
2019-04-21T12:50:13.061Z,26.40
2019-04-21T12:52:41.958Z,25.95
2019-04-21T12:55:11.436Z,24.45
2019-04-21T12:57:41.238Z,25.52
2019-04-21T13:00:13.115Z,26.15
2019-04-21T13:02:41.789Z,23.38
2019-04-21T13:05:11.657Z,28.00
2019-04-21T13:07:41.466Z,25.65
2019-04-21T13:10:12.721Z,24.00
2019-04-21T13:12:41.750Z,24.82
2019-04-21T13:15:11.048Z,26.55
2019-04-21T13:17:39.584Z,22.35
2019-04-21T13:20:11.480Z,24.50
2019-04-21T13:22:40.181Z,26.17
2019-04-21T13:25:09.707Z,24.32
2019-04-21T13:27:38.779Z,21.15
2019-04-21T13:30:10.533Z,23.32
2019-04-21T13:32:39.157Z,20.90
2019-04-21T13:35:10.730Z,23.50
2019-04-21T13:37:43.652Z,21.35
2019-04-21T13:40:34.110Z,19.50
2019-04-21T13:42:51.691Z,26.93
2019-04-21T13:45:18.326Z,19.27
2019-04-21T13:47:48.391Z,22.20
2019-04-21T13:50:17.417Z,21.90
2019-04-21T13:52:46.808Z,19.02
2019-04-21T13:55:15.910Z,17.12
2019-04-21T13:57:44.571Z,18.15
2019-04-21T14:00:15.033Z,21.97
2019-04-21T14:02:44.798Z,21.07
2019-04-21T14:05:15.725Z,20.90
2019-04-21T14:07:44.140Z,19.12
2019-04-21T14:10:14.268Z,21.60
2019-04-21T14:12:44.487Z,22.37
2019-04-21T14:15:14.650Z,20.57
2019-04-21T14:17:44.567Z,18.02
2019-04-21T14:20:13.287Z,18.98
2019-04-21T14:22:42.209Z,18.40
2019-04-21T14:25:12.126Z,17.98
2019-04-21T14:27:41.827Z,16.57
2019-04-21T14:30:12.255Z,16.97
2019-04-21T14:32:42.088Z,19.73
2019-04-21T14:35:12.442Z,15.75
2019-04-21T14:37:42.464Z,18.40
2019-04-21T14:40:16.238Z,19.42
2019-04-21T14:42:42.299Z,19.35
2019-04-21T14:45:12.744Z,18.55
2019-04-21T14:47:44.184Z,16.67
2019-04-21T14:50:15.551Z,15.10
2019-04-21T14:52:44.479Z,15.78
2019-04-21T14:55:14.854Z,15.93
2019-04-21T14:57:43.561Z,16.90
2019-04-21T15:00:15.920Z,17.32
2019-04-21T15:02:45.550Z,13.93
2019-04-21T15:05:15.605Z,16.85
2019-04-21T15:07:45.381Z,16.00
2019-04-21T15:10:19.044Z,16.52
2019-04-21T15:12:45.655Z,16.12
2019-04-21T15:15:15.872Z,16.20
2019-04-21T15:17:46.176Z,16.23
2019-04-21T15:20:17.323Z,19.20
2019-04-21T15:22:46.253Z,15.45
2019-04-21T15:25:16.114Z,16.52
2019-04-21T15:27:45.135Z,14.10
2019-04-21T15:30:16.467Z,17.20
2019-04-21T15:32:46.404Z,17.27
2019-04-21T15:35:15.290Z,14.25
2019-04-21T15:37:44.121Z,16.20
2019-04-21T15:40:21.452Z,15.18
2019-04-21T15:42:44.207Z,15.30
2019-04-21T15:45:12.968Z,16.52
2019-04-21T15:47:42.125Z,17.92
2019-04-21T15:50:17.202Z,16.20
2019-04-21T15:52:41.737Z,16.45
2019-04-21T15:55:12.765Z,19.32
2019-04-21T15:57:42.963Z,17.82
2019-04-21T16:00:16.242Z,16.77
2019-04-21T16:02:46.764Z,18.42
2019-04-21T16:05:16.811Z,13.98
2019-04-21T16:07:45.460Z,16.37
2019-04-21T16:10:32.723Z,16.40
2019-04-21T16:12:47.734Z,18.50
2019-04-21T16:15:16.742Z,18.48
2019-04-21T16:17:45.617Z,16.95
2019-04-21T16:20:15.482Z,17.45
2019-04-21T16:25:18.874Z,19.48
2019-04-21T16:27:47.706Z,17.25
2019-04-21T16:30:17.653Z,18.45
2019-04-21T16:32:46.268Z,17.02
2019-04-21T16:35:16.507Z,15.93
2019-04-21T16:37:45.802Z,18.60
2019-04-21T16:40:15.319Z,16.65
2019-04-21T16:42:43.849Z,17.12
2019-04-21T16:45:14.676Z,17.17
2019-04-21T16:47:44.209Z,18.82
2019-04-21T16:50:13.931Z,17.45
2019-04-21T16:52:44.064Z,14.43
2019-04-21T16:55:14.949Z,16.77
2019-04-21T16:57:53.061Z,17.73
2019-04-21T17:00:27.866Z,15.60
2019-04-21T17:02:48.279Z,16.62
2019-04-21T17:05:18.210Z,16.45
2019-04-21T17:07:47.137Z,14.47
2019-04-21T17:10:16.953Z,14.87
2019-04-21T17:12:45.661Z,16.25
2019-04-21T17:15:32.394Z,15.95
2019-04-21T17:18:06.142Z,14.38
2019-04-21T17:20:30.013Z,15.53
2019-04-21T17:22:45.735Z,19.10
2019-04-21T17:25:16.100Z,17.42
2019-04-21T17:27:44.965Z,16.70
2019-04-21T17:30:14.749Z,18.20
2019-04-21T17:32:48.419Z,20.62
2019-04-21T17:35:14.285Z,16.42
2019-04-21T17:37:42.722Z,15.15
2019-04-21T17:40:11.654Z,17.77
2019-04-21T17:42:46.563Z,14.95
2019-04-21T17:45:10.939Z,15.55
2019-04-21T17:47:46.823Z,14.93
2019-04-21T17:50:11.718Z,14.15
2019-04-21T17:52:48.255Z,15.20
2019-04-21T17:55:22.990Z,16.80
2019-04-21T18:00:57.825Z,13.83
2019-04-21T18:03:24.248Z,16.37
2019-04-21T18:05:40.991Z,15.93
2019-04-21T18:08:14.034Z,16.25
2019-04-21T18:10:38.998Z,14.55
2019-04-21T18:13:01.329Z,16.45
2019-04-21T18:15:40.275Z,16.15
2019-04-21T18:17:56.566Z,17.52
2019-04-21T18:20:28.038Z,17.50
2019-04-21T18:23:00.929Z,17.35
2019-04-21T18:25:42.334Z,17.70
2019-04-21T18:28:02.942Z,21.55
2019-04-21T18:30:35.752Z,16.82
2019-04-21T18:33:15.501Z,15.70
2019-04-21T18:35:43.016Z,20.45
2019-04-21T18:38:16.653Z,19.70
2019-04-21T18:40:45.193Z,19.12
2019-04-21T18:43:48.862Z,19.23
2019-04-21T18:46:06.950Z,21.55
2019-04-21T18:48:24.709Z,18.67
2019-04-21T18:50:53.677Z,17.52
2019-04-21T18:53:39.883Z,20.52
2019-04-21T18:55:55.728Z,19.00
2019-04-21T18:58:18.263Z,22.45
2019-04-21T19:00:48.744Z,22.07
2019-04-21T19:03:25.348Z,20.15
2019-04-21T19:05:53.203Z,25.43
2019-04-21T19:08:30.644Z,23.10
2019-04-21T19:11:08.836Z,22.62
2019-04-21T19:13:53.631Z,24.90
2019-04-21T19:16:27.989Z,21.82
2019-04-21T19:18:50.555Z,22.65
2019-04-21T19:21:08.727Z,23.40
2019-04-21T19:23:45.256Z,22.40
2019-04-21T19:26:23.338Z,20.90
2019-04-21T19:28:47.173Z,23.60
2019-04-21T19:31:12.727Z,22.17
2019-04-21T19:33:33.343Z,21.25
2019-04-21T19:35:51.039Z,24.98
2019-04-21T19:38:30.560Z,23.38
2019-04-21T19:41:09.264Z,23.15
2019-04-21T19:43:44.210Z,23.57
2019-04-21T19:46:09.745Z,21.15
2019-04-21T19:48:44.599Z,27.02
2019-04-21T19:51:10.809Z,23.42
2019-04-21T19:53:34.900Z,27.27
2019-04-21T19:55:51.989Z,26.93
2019-04-21T19:58:27.556Z,26.12
2019-04-21T20:00:53.493Z,24.23
2019-04-21T20:03:20.995Z,28.25
2019-04-21T20:06:00.179Z,26.17
2019-04-21T20:08:32.611Z,23.87
2019-04-21T20:11:11.382Z,28.52
2019-04-21T20:13:56.954Z,29.00
2019-04-21T20:16:07.994Z,26.75
2019-04-21T20:18:27.247Z,27.85
2019-04-21T20:20:52.055Z,31.10
2019-04-21T20:23:26.122Z,26.35
2019-04-21T20:25:55.954Z,26.80
2019-04-21T20:28:34.527Z,27.10
2019-04-21T20:31:10.787Z,30.45
2019-04-21T20:38:31.192Z,30.23
2019-04-21T20:41:00.099Z,27.10
2019-04-21T20:43:42.626Z,25.15
2019-04-21T20:46:07.907Z,29.87
2019-04-21T20:48:40.114Z,33.60
2019-04-21T20:51:18.431Z,29.80
2019-04-21T20:53:36.163Z,27.15
2019-04-21T20:56:02.181Z,27.13
2019-04-21T20:58:40.724Z,29.27
2019-04-21T21:01:25.695Z,29.67
2019-04-21T21:03:42.273Z,31.40
2019-04-21T21:06:07.566Z,28.10
2019-04-21T21:08:40.260Z,27.70
2019-04-21T21:11:07.989Z,26.30
2019-04-21T21:13:44.745Z,26.48
2019-04-21T21:16:24.707Z,29.72
2019-04-21T21:21:11.168Z,32.28
2019-04-21T21:23:42.924Z,29.40
2019-04-21T21:28:34.063Z,30.85
2019-04-21T21:31:11.502Z,29.70
2019-04-21T21:33:47.707Z,28.95
2019-04-21T21:36:10.700Z,28.35
2019-04-21T21:38:45.859Z,30.90
2019-04-21T21:41:03.677Z,31.82
2019-04-21T21:43:25.151Z,28.32
2019-04-21T21:45:56.109Z,29.77
2019-04-21T21:48:38.018Z,28.42
2019-04-21T21:51:04.181Z,26.97
2019-04-21T21:53:28.434Z,31.07
2019-04-21T21:55:53.702Z,29.55
2019-04-21T21:58:27.482Z,33.53
2019-04-21T22:00:58.596Z,30.72
2019-04-21T22:03:30.964Z,31.52
2019-04-21T22:06:03.574Z,30.70
2019-04-21T22:08:24.783Z,27.93
2019-04-21T22:10:54.897Z,29.42
2019-04-21T22:13:34.143Z,31.68
2019-04-21T22:15:56.597Z,29.48
2019-04-21T22:18:42.115Z,32.40
2019-04-21T22:21:07.657Z,31.62
2019-04-21T22:23:36.996Z,32.08
2019-04-21T22:25:55.485Z,34.40
2019-04-21T22:28:25.305Z,31.07
2019-04-21T22:30:55.155Z,30.40
2019-04-21T22:33:25.785Z,32.53
2019-04-21T22:36:02.671Z,31.05
2019-04-21T22:38:40.180Z,31.20
2019-04-21T22:41:05.968Z,30.65
2019-04-21T22:43:32.471Z,31.87
2019-04-21T22:45:55.724Z,30.75
2019-04-21T22:48:28.212Z,31.95
2019-04-21T22:50:54.593Z,29.57
2019-04-21T22:53:23.130Z,30.05
2019-04-21T22:55:58.649Z,32.98
2019-04-21T22:58:25.946Z,28.67
2019-04-21T23:00:56.206Z,34.50
2019-04-21T23:03:24.869Z,33.28
2019-04-21T23:05:53.710Z,29.98
2019-04-21T23:08:28.862Z,26.42
2019-04-21T23:10:58.492Z,30.40
2019-04-21T23:13:24.118Z,25.15
2019-04-21T23:15:57.244Z,25.95
2019-04-21T23:18:37.472Z,27.67
2019-04-21T23:21:10.396Z,31.97
2019-04-21T23:23:44.328Z,27.42
2019-04-21T23:26:14.399Z,25.32
2019-04-21T23:28:45.522Z,25.88
2019-04-21T23:31:12.453Z,27.50
2019-04-21T23:33:25.724Z,25.08
2019-04-21T23:36:05.184Z,24.32
2019-04-21T23:38:30.288Z,23.47
2019-04-21T23:40:59.915Z,26.57
2019-04-21T23:43:29.198Z,25.65
2019-04-21T23:45:57.180Z,23.38
2019-04-21T23:48:36.503Z,25.37
2019-04-21T23:51:12.197Z,23.12
2019-04-21T23:53:26.087Z,22.00
2019-04-21T23:55:54.921Z,24.30
2019-04-21T23:58:26.381Z,25.77
